Time;durP1;ratioP1;P1;durP2;ratioP2;P2;SDS_P1;SDS_P2;PMS_P1;PMS_P2;Temp;Humidity;BMP_temperature;BMP_pressure;BME280_temperature;BME280_humidity;BME280_pressure;Samples;Min_cycle;Max_cycle;Signal;HPM_P1;HPM_P2
2021/12/30 00:01:39;;;;;;;0.20;0.20;;;11.30;99.90;;;;;;4976542;28;20602;-72
2021/12/30 00:04:07;;;;;;;0.10;0.10;;;11.30;99.90;;;;;;4978675;28;20343;-72
2021/12/30 00:06:40;;;;;;;1.55;0.40;;;11.30;99.90;;;;;;4978204;28;20046;-73
2021/12/30 00:09:09;;;;;;;0.20;0.20;;;11.30;99.90;;;;;;4977620;28;20050;-72
2021/12/30 00:11:37;;;;;;;0.20;0.20;;;11.30;99.90;;;;;;4978202;28;20355;-72
2021/12/30 00:14:04;;;;;;;0.20;0.15;;;11.30;99.90;;;;;;4977582;28;20113;-72
2021/12/30 00:16:31;;;;;;;1.88;0.22;;;11.30;99.90;;;;;;4978952;28;20136;-72
2021/12/30 00:18:58;;;;;;;0.70;0.30;;;11.30;99.90;;;;;;4983487;28;20060;-72
2021/12/30 00:21:25;;;;;;;;;;;11.30;99.90;;;;;;4998298;28;20045;-73
2021/12/30 00:23:52;;;;;;;0.22;0.22;;;11.30;99.90;;;;;;4996901;28;19992;-72
2021/12/30 00:26:19;;;;;;;0.20;0.20;;;11.20;99.90;;;;;;4997375;28;20096;-72
2021/12/30 00:28:46;;;;;;;2.28;0.25;;;11.20;99.90;;;;;;4997025;28;20104;-72
2021/12/30 00:31:15;;;;;;;1.65;0.25;;;11.20;99.90;;;;;;4995980;28;20049;-72
2021/12/30 00:33:42;;;;;;;0.20;0.20;;;11.30;99.90;;;;;;4997250;28;20045;-73
2021/12/30 00:36:11;;;;;;;0.98;0.20;;;11.30;99.90;;;;;;4997246;28;20202;-73
2021/12/30 00:38:41;;;;;;;0.20;0.20;;;11.30;99.90;;;;;;4997539;28;20351;-73
2021/12/30 00:41:09;;;;;;;0.20;0.20;;;11.20;99.90;;;;;;4996496;28;20376;-73
2021/12/30 00:43:36;;;;;;;0.63;0.40;;;11.30;99.90;;;;;;4997303;28;20077;-73
2021/12/30 00:46:05;;;;;;;0.45;0.20;;;11.20;99.90;;;;;;4989418;28;20053;-73
2021/12/30 00:48:32;;;;;;;2.08;0.10;;;11.20;99.90;;;;;;4977400;28;20944;-73
2021/12/30 00:50:59;;;;;;;0.45;0.30;;;11.20;99.90;;;;;;4976904;28;20078;-72
2021/12/30 00:53:26;;;;;;;;;;;11.20;99.90;;;;;;4977188;28;20277;-73
2021/12/30 00:55:53;;;;;;;0.20;0.20;;;11.20;99.90;;;;;;4977227;28;19925;-72
2021/12/30 00:58:19;;;;;;;0.20;0.20;;;11.20;99.90;;;;;;4977070;28;20046;-73
2021/12/30 01:00:47;;;;;;;0.85;0.10;;;11.20;99.90;;;;;;4976175;28;20412;-73
2021/12/30 01:03:16;;;;;;;0.60;0.30;;;11.20;99.90;;;;;;4976878;28;20501;-73
2021/12/30 01:05:44;;;;;;;0.35;0.25;;;11.20;99.90;;;;;;4977546;28;20046;-73
2021/12/30 01:08:10;;;;;;;0.30;0.30;;;11.20;99.90;;;;;;4976771;28;20353;-73
2021/12/30 01:10:38;;;;;;;0.30;0.30;;;11.20;99.90;;;;;;4977221;28;20646;-73
2021/12/30 01:13:08;;;;;;;0.20;0.20;;;11.20;99.90;;;;;;4975197;28;20603;-73
2021/12/30 01:18:42;;;;;;;0.20;0.20;;;11.20;99.90;;;;;;4979282;28;20062;-73
2021/12/30 01:21:13;;;;;;;0.10;0.10;;;11.10;99.90;;;;;;4996028;28;20045;-73
2021/12/30 01:23:43;;;;;;;0.20;0.20;;;11.10;99.90;;;;;;4996569;28;20049;-73
2021/12/30 01:26:11;;;;;;;0.20;0.20;;;11.20;99.90;;;;;;4996412;28;20516;-73
2021/12/30 01:28:39;;;;;;;0.22;0.22;;;11.20;99.90;;;;;;4996814;28;20042;-73
2021/12/30 01:31:06;;;;;;;0.30;0.30;;;11.20;99.90;;;;;;4994653;28;20463;-73
2021/12/30 01:33:33;;;;;;;0.10;0.10;;;11.20;99.90;;;;;;4996125;28;20130;-72
2021/12/30 01:36:00;;;;;;;;;;;11.20;99.90;;;;;;4996671;28;20073;-73
2021/12/30 01:38:27;;;;;;;0.38;0.35;;;11.30;99.90;;;;;;4995886;28;19933;-73
2021/12/30 01:40:57;;;;;;;0.20;0.20;;;11.30;99.90;;;;;;4995506;28;20104;-72
2021/12/30 01:43:24;;;;;;;0.30;0.20;;;11.30;99.90;;;;;;4996051;28;20570;-72
2021/12/30 01:45:51;;;;;;;;;;;11.40;99.90;;;;;;4990978;28;20066;-72
2021/12/30 01:48:18;;;;;;;0.22;0.20;;;11.30;99.90;;;;;;4977158;28;20020;-72
2021/12/30 01:50:45;;;;;;;0.50;0.40;;;11.30;99.90;;;;;;4976231;28;20124;-73
2021/12/30 01:53:12;;;;;;;0.38;0.38;;;11.30;99.90;;;;;;4975958;28;20046;-72
2021/12/30 01:55:41;;;;;;;0.10;0.10;;;11.30;99.90;;;;;;4976492;28;20103;-72
2021/12/30 01:58:10;;;;;;;0.20;0.20;;;11.20;99.90;;;;;;4975924;28;20645;-72
2021/12/30 02:00:39;;;;;;;1.95;0.30;;;11.20;99.90;;;;;;4975467;28;20445;-73
2021/12/30 02:03:06;;;;;;;0.30;0.22;;;11.20;99.90;;;;;;4974747;28;20074;-72
2021/12/30 02:05:34;;;;;;;0.25;0.25;;;11.10;99.90;;;;;;4975983;28;20060;-72
2021/12/30 02:08:00;;;;;;;0.35;0.30;;;11.10;99.90;;;;;;4975816;28;20109;-72
2021/12/30 02:10:27;;;;;;;;;;;11.10;99.90;;;;;;4975557;28;20273;-73
2021/12/30 02:12:54;;;;;;;0.20;0.20;;;11.10;99.90;;;;;;4975969;28;19984;-72
2021/12/30 02:15:21;;;;;;;0.30;0.30;;;11.00;99.90;;;;;;4974968;28;20077;-72
2021/12/30 02:17:48;;;;;;;;;;;11.00;99.90;;;;;;4977465;28;20053;-72
2021/12/30 02:20:34;;;;;;;;;;;11.00;99.90;;;;;;4990058;28;19932;-73
2021/12/30 02:23:01;;;;;;;0.20;0.20;;;10.90;99.90;;;;;;4995159;28;19926;-73
2021/12/30 02:25:28;;;;;;;0.20;0.20;;;10.90;99.90;;;;;;4995186;28;20100;-72
2021/12/30 02:27:54;;;;;;;;;;;11.00;99.90;;;;;;4996243;28;20506;-72
2021/12/30 02:30:21;;;;;;;0.10;0.10;;;11.00;99.90;;;;;;4994417;28;19932;-72
2021/12/30 02:32:48;;;;;;;;;;;11.10;99.90;;;;;;4995555;28;20989;-72
2021/12/30 02:35:15;;;;;;;0.68;0.20;;;11.10;99.90;;;;;;4994990;28;19933;-73
2021/12/30 02:37:42;;;;;;;4.53;0.40;;;11.10;99.90;;;;;;4994632;28;20525;-72
2021/12/30 02:40:09;;;;;;;;;;;11.10;99.90;;;;;;4995174;28;20049;-72
2021/12/30 02:42:35;;;;;;;0.25;0.25;;;11.10;99.90;;;;;;4994684;28;19933;-72
2021/12/30 02:45:02;;;;;;;1.13;0.40;;;11.10;99.90;;;;;;4994422;28;20038;-72
2021/12/30 02:47:33;;;;;;;0.17;0.17;;;11.10;99.90;;;;;;4976125;28;20050;-72
2021/12/30 02:49:59;;;;;;;0.10;0.10;;;11.10;99.90;;;;;;4974684;28;20108;-72
2021/12/30 02:52:26;;;;;;;;;;;11.10;99.90;;;;;;4975602;28;20061;-72
2021/12/30 02:54:53;;;;;;;1.10;0.20;;;11.00;99.90;;;;;;4974303;28;20392;-72
2021/12/30 02:57:25;;;;;;;0.10;0.10;;;11.00;99.90;;;;;;4975656;28;20162;-72
2021/12/30 02:59:52;;;;;;;0.70;0.10;;;10.90;99.90;;;;;;4974464;28;20038;-72
2021/12/30 03:02:18;;;;;;;;;;;10.90;99.90;;;;;;4975534;28;20478;-72
2021/12/30 03:04:45;;;;;;;0.40;0.20;;;10.90;99.90;;;;;;4980272;28;20109;-71
2021/12/30 03:07:13;;;;;;;1.75;0.35;;;10.80;99.90;;;;;;4994539;28;20033;-72
2021/12/30 03:09:40;;;;;;;0.20;0.20;;;10.80;99.90;;;;;;4976512;28;20042;-72
2021/12/30 03:12:07;;;;;;;0.20;0.20;;;10.70;99.90;;;;;;4975010;28;20500;-72
2021/12/30 03:14:37;;;;;;;;;;;10.70;99.90;;;;;;4975428;28;20261;-73
2021/12/30 03:17:04;;;;;;;0.30;0.30;;;10.70;99.90;;;;;;4982360;28;19929;-72
2021/12/30 03:19:31;;;;;;;0.63;0.32;;;10.70;99.90;;;;;;4998215;28;20393;-72
2021/12/30 03:21:57;;;;;;;0.30;0.20;;;10.70;99.90;;;;;;4998057;28;20054;-72
2021/12/30 03:24:24;;;;;;;;;;;10.70;99.90;;;;;;4999306;28;20041;-73
2021/12/30 03:26:51;;;;;;;0.25;0.20;;;10.70;99.90;;;;;;4998294;28;19925;-73
2021/12/30 03:29:18;;;;;;;;;;;10.70;99.90;;;;;;4998116;28;20053;-73
2021/12/30 03:31:45;;;;;;;3.30;0.20;;;10.70;99.90;;;;;;4998115;28;20497;-73
2021/12/30 03:34:11;;;;;;;;;;;10.70;99.90;;;;;;4998750;28;20333;-73
2021/12/30 03:36:38;;;;;;;1.45;0.30;;;10.70;99.90;;;;;;4998743;28;19991;-73
2021/12/30 03:39:05;;;;;;;0.63;0.30;;;10.80;99.90;;;;;;4997796;28;20132;-73
2021/12/30 03:41:32;;;;;;;0.20;0.20;;;10.80;99.90;;;;;;4998627;28;20042;-73
2021/12/30 03:44:00;;;;;;;;;;;10.80;99.90;;;;;;4998429;28;20073;-73
2021/12/30 03:46:27;;;;;;;;;;;10.80;99.90;;;;;;4988397;28;20000;-73
2021/12/30 03:48:54;;;;;;;1.70;0.30;;;10.80;99.90;;;;;;4978532;28;19929;-73
2021/12/30 03:51:24;;;;;;;0.55;0.22;;;10.70;99.90;;;;;;4977802;28;20073;-73
2021/12/30 03:53:54;;;;;;;0.20;0.20;;;10.70;99.90;;;;;;4978463;28;20053;-73
2021/12/30 03:56:29;;;;;;;0.30;0.28;;;10.70;99.90;;;;;;4978447;28;20054;-73
2021/12/30 03:58:56;;;;;;;0.20;0.20;;;10.60;99.90;;;;;;4977370;28;20050;-73
2021/12/30 04:01:26;;;;;;;0.15;0.15;;;10.60;99.90;;;;;;4988604;28;20192;-73
2021/12/30 04:03:54;;;;;;;2.90;0.32;;;10.50;99.90;;;;;;4978641;28;20592;-73
2021/12/30 04:06:21;;;;;;;0.90;0.30;;;10.50;99.90;;;;;;4977680;28;20446;-73
2021/12/30 04:08:48;;;;;;;0.20;0.20;;;10.40;99.90;;;;;;4977496;28;20054;-73
2021/12/30 04:11:15;;;;;;;0.20;0.20;;;10.40;99.90;;;;;;4977550;28;20064;-73
2021/12/30 04:13:42;;;;;;;;;;;10.30;99.90;;;;;;4978175;28;20050;-73
2021/12/30 04:16:09;;;;;;;0.32;0.32;;;10.30;99.90;;;;;;4978408;28;19926;-73
2021/12/30 04:18:36;;;;;;;0.20;0.20;;;10.30;99.90;;;;;;4982005;28;20052;-73
2021/12/30 04:21:02;;;;;;;;;;;10.30;99.90;;;;;;4997635;28;20073;-73
2021/12/30 04:23:29;;;;;;;0.20;0.20;;;10.30;99.90;;;;;;4997342;28;20241;-73
2021/12/30 04:25:56;;;;;;;;;;;10.30;99.90;;;;;;4997812;28;20526;-73
2021/12/30 04:28:23;;;;;;;3.70;0.30;;;10.30;99.90;;;;;;4996010;28;19948;-73
2021/12/30 04:30:50;;;;;;;;;;;10.30;99.90;;;;;;4997740;28;20369;-73
2021/12/30 04:33:16;;;;;;;0.35;0.20;;;10.30;99.90;;;;;;4997392;28;20262;-73
2021/12/30 04:35:43;;;;;;;2.45;0.30;;;10.20;99.90;;;;;;4996385;28;20041;-73
2021/12/30 04:38:10;;;;;;;0.20;0.20;;;10.20;99.90;;;;;;4997774;28;20103;-73
2021/12/30 04:40:37;;;;;;;;;;;10.30;99.90;;;;;;4997316;28;20077;-73
2021/12/30 04:43:03;;;;;;;0.30;0.30;;;10.20;99.90;;;;;;4997432;28;20597;-73
2021/12/30 04:45:30;;;;;;;0.17;0.17;;;10.30;99.90;;;;;;4993994;28;20124;-73
2021/12/30 04:47:57;;;;;;;0.13;0.13;;;10.30;99.90;;;;;;4977540;28;20354;-73
2021/12/30 04:50:25;;;;;;;;;;;10.20;99.90;;;;;;4976718;28;20108;-73
2021/12/30 04:52:52;;;;;;;0.10;0.10;;;10.20;99.90;;;;;;4978116;28;20555;-73
2021/12/30 04:55:19;;;;;;;;;;;10.20;99.90;;;;;;4978122;28;20093;-73
2021/12/30 04:57:45;;;;;;;0.13;0.13;;;10.20;99.90;;;;;;4977150;28;20230;-73
2021/12/30 05:00:12;;;;;;;;;;;10.20;99.90;;;;;;4977619;28;20093;-73
2021/12/30 05:03:25;;;;;;;0.32;0.32;;;10.20;99.90;;;;;;4977083;28;20015;-73
2021/12/30 05:05:27;;;;;;;0.20;0.20;;;10.20;99.90;;;;;;4979086;28;20547;-73
2021/12/30 05:07:53;;;;;;;;;;;10.10;99.90;;;;;;4977837;28;20065;-73
2021/12/30 05:10:20;;;;;;;0.40;0.40;;;10.10;99.90;;;;;;4976640;28;20451;-73
2021/12/30 05:12:47;;;;;;;;;;;10.10;99.90;;;;;;4978107;28;20058;-73
2021/12/30 05:15:13;;;;;;;0.32;0.22;;;10.10;99.90;;;;;;4977649;28;19995;-73
2021/12/30 05:17:41;;;;;;;;;;;10.10;99.90;;;;;;4979657;28;20053;-73
2021/12/30 05:20:09;;;;;;;2.95;1.05;;;10.10;99.90;;;;;;4992093;28;19925;-73
2021/12/30 05:22:36;;;;;;;0.90;0.70;;;10.20;99.90;;;;;;4997468;28;20072;-73
2021/12/30 05:25:03;;;;;;;;;;;10.20;99.90;;;;;;4998248;28;20500;-73
2021/12/30 05:27:30;;;;;;;1.48;0.40;;;10.20;99.90;;;;;;4997129;28;20231;-73
2021/12/30 05:29:57;;;;;;;;;;;10.20;99.90;;;;;;4995388;28;20444;-73
2021/12/30 05:32:23;;;;;;;0.20;0.20;;;10.20;99.90;;;;;;4997466;28;19921;-73
2021/12/30 05:34:50;;;;;;;0.52;0.20;;;10.20;99.90;;;;;;4996840;28;20132;-73
2021/12/30 05:37:17;;;;;;;0.15;0.15;;;10.30;99.90;;;;;;4998130;28;20103;-74
2021/12/30 05:39:43;;;;;;;;;;;10.30;99.90;;;;;;4998440;28;20050;-74
2021/12/30 05:42:10;;;;;;;0.55;0.30;;;10.30;99.90;;;;;;4998257;28;20371;-74
2021/12/30 05:44:37;;;;;;;;;;;10.40;99.90;;;;;;4999267;28;20053;-74
2021/12/30 05:47:04;;;;;;;0.30;0.30;;;10.40;99.90;;;;;;4982781;28;20451;-74
2021/12/30 05:49:30;;;;;;;;;;;10.40;99.90;;;;;;4978691;28;20069;-75
2021/12/30 05:51:57;;;;;;;0.25;0.25;;;10.40;99.90;;;;;;4976975;28;20363;-75
2021/12/30 05:54:24;;;;;;;0.30;0.28;;;10.40;99.90;;;;;;4976832;28;20120;-75
2021/12/30 05:56:52;;;;;;;0.10;0.10;;;10.40;99.90;;;;;;4976709;28;20322;-75
2021/12/30 05:59:19;;;;;;;0.93;0.22;;;10.40;99.90;;;;;;4976200;28;20108;-74
2021/12/30 06:01:46;;;;;;;0.30;0.30;;;10.30;99.90;;;;;;4977278;28;20173;-75
2021/12/30 06:04:13;;;;;;;0.20;0.20;;;10.40;99.90;;;;;;4991425;28;20609;-74
2021/12/30 06:06:40;;;;;;;;;;;10.40;99.90;;;;;;4978082;28;20042;-74
2021/12/30 06:09:07;;;;;;;0.30;0.30;;;10.30;99.90;;;;;;4976272;28;19925;-74
2021/12/30 06:11:34;;;;;;;0.40;0.40;;;10.40;99.90;;;;;;4977477;28;20409;-53
2021/12/30 06:14:00;;;;;;;0.40;0.40;;;10.40;99.90;;;;;;4976213;28;20050;-58
2021/12/30 06:16:27;;;;;;;0.52;0.30;;;10.30;99.90;;;;;;4976015;28;20468;-59
2021/12/30 06:18:54;;;;;;;;;;;10.30;99.90;;;;;;4995846;28;20243;-58
2021/12/30 06:21:21;;;;;;;0.45;0.40;;;10.30;99.90;;;;;;4995799;28;19964;-58
2021/12/30 06:23:47;;;;;;;;;;;10.40;99.90;;;;;;4996228;28;20210;-58
2021/12/30 06:26:14;;;;;;;0.20;0.20;;;10.30;99.90;;;;;;4995025;28;20466;-58
2021/12/30 06:28:41;;;;;;;;;;;10.40;99.90;;;;;;4997439;28;20061;-58
2021/12/30 06:31:07;;;;;;;0.30;0.30;;;10.40;99.90;;;;;;4995720;28;19922;-59
2021/12/30 06:33:39;;;;;;;0.52;0.20;;;10.50;99.90;;;;;;4996012;28;20661;-59
2021/12/30 06:36:07;;;;;;;0.30;0.30;;;10.50;99.90;;;;;;4996278;28;20049;-58
2021/12/30 06:38:34;;;;;;;0.73;0.50;;;10.50;99.90;;;;;;4994987;28;20057;-58
2021/12/30 06:41:01;;;;;;;;;;;10.50;99.90;;;;;;4996355;28;20128;-58
2021/12/30 06:43:28;;;;;;;0.20;0.20;;;10.50;99.90;;;;;;4995941;28;20150;-58
2021/12/30 06:45:55;;;;;;;0.65;0.30;;;10.50;99.90;;;;;;4990040;28;20094;-58
2021/12/30 06:48:22;;;;;;;1.45;0.40;;;10.50;99.90;;;;;;4976281;28;20285;-58
2021/12/30 06:50:52;;;;;;;;;;;10.50;99.90;;;;;;4975879;28;20042;-58
2021/12/30 06:53:21;;;;;;;1.27;0.40;;;10.40;99.90;;;;;;4976154;28;20330;-59
2021/12/30 06:55:50;;;;;;;2.83;0.40;;;10.50;99.90;;;;;;4975613;28;20050;-59
2021/12/30 06:58:17;;;;;;;0.35;0.35;;;10.40;99.90;;;;;;4977134;28;20046;-59
2021/12/30 07:00:47;;;;;;;0.60;0.40;;;10.40;99.90;;;;;;4975077;28;20053;-58
2021/12/30 07:03:15;;;;;;;0.30;0.30;;;10.40;99.90;;;;;;4976670;28;20051;-59
2021/12/30 07:05:41;;;;;;;;;;;10.40;99.90;;;;;;4977456;28;20082;-58
2021/12/30 07:08:08;;;;;;;0.40;0.40;;;10.40;99.90;;;;;;4977996;28;19925;-58
2021/12/30 07:10:35;;;;;;;0.85;0.30;;;10.40;99.90;;;;;;4977435;28;20074;-58
2021/12/30 07:13:02;;;;;;;;;;;10.40;99.90;;;;;;4978138;28;20046;-58
2021/12/30 07:15:28;;;;;;;0.20;0.20;;;10.40;99.90;;;;;;4976132;28;20266;-59
2021/12/30 07:17:55;;;;;;;;;;;10.40;99.90;;;;;;5003175;28;20054;-57
2021/12/30 07:20:22;;;;;;;0.80;0.32;;;10.40;99.90;;;;;;4994251;28;20422;-58
2021/12/30 07:22:49;;;;;;;0.30;0.30;;;10.30;99.90;;;;;;4995798;28;20129;-58
2021/12/30 07:25:16;;;;;;;2.85;0.50;;;10.40;99.90;;;;;;4995636;28;20049;-58
2021/12/30 07:27:50;;;;;;;0.50;0.30;;;10.40;99.90;;;;;;4994929;28;20050;-58
2021/12/30 07:30:18;;;;;;;1.27;0.38;;;10.30;99.90;;;;;;4995908;28;20439;-58
2021/12/30 07:32:46;;;;;;;0.68;0.30;;;10.30;99.90;;;;;;4996638;28;20077;-59
2021/12/30 07:35:14;;;;;;;0.30;0.30;;;10.40;99.90;;;;;;4996589;28;20050;-58
2021/12/30 07:37:41;;;;;;;0.47;0.30;;;10.40;99.90;;;;;;4995974;28;20070;-59
2021/12/30 07:40:09;;;;;;;0.30;0.30;;;10.40;99.90;;;;;;4994916;28;20042;-59
2021/12/30 07:42:36;;;;;;;1.88;0.40;;;10.40;99.90;;;;;;4996169;28;20046;-59
2021/12/30 07:45:04;;;;;;;1.58;0.50;;;10.40;99.90;;;;;;4996234;28;20071;-59
2021/12/30 07:47:32;;;;;;;1.15;0.70;;;10.40;99.90;;;;;;4977399;28;20043;-59
2021/12/30 07:49:59;;;;;;;0.47;0.38;;;10.40;99.90;;;;;;4975694;28;20780;-59
2021/12/30 07:52:25;;;;;;;;;;;10.40;99.90;;;;;;4977870;28;20070;-59
2021/12/30 07:54:52;;;;;;;3.20;0.40;;;10.40;99.90;;;;;;4976263;28;19925;-59
2021/12/30 07:57:21;;;;;;;0.45;0.45;;;10.50;99.90;;;;;;4976847;28;20496;-59
2021/12/30 07:59:52;;;;;;;0.43;0.40;;;10.50;99.90;;;;;;4974635;28;20077;-59
2021/12/30 08:02:19;;;;;;;1.75;0.60;;;10.60;99.90;;;;;;4975812;28;20046;-59
2021/12/30 08:04:46;;;;;;;0.47;0.43;;;10.50;99.90;;;;;;4978384;28;20046;-59
2021/12/30 08:07:15;;;;;;;0.55;0.40;;;10.60;99.90;;;;;;4979350;28;20053;-56
2021/12/30 08:09:42;;;;;;;1.15;0.40;;;10.60;99.90;;;;;;4977557;28;20449;-55
2021/12/30 08:12:08;;;;;;;0.60;0.55;;;10.60;99.90;;;;;;4992295;28;20322;-57
2021/12/30 08:14:35;;;;;;;;;;;10.60;99.90;;;;;;4998659;28;20924;-58
2021/12/30 08:17:02;;;;;;;0.45;0.45;;;10.60;99.90;;;;;;4993072;28;20376;-57
2021/12/30 08:19:33;;;;;;;1.13;0.60;;;10.70;99.90;;;;;;4988058;28;20064;-57
2021/12/30 08:22:01;;;;;;;1.08;0.57;;;10.70;99.90;;;;;;4997665;28;20076;-57
2021/12/30 08:24:29;;;;;;;0.43;0.43;;;10.70;99.90;;;;;;4998018;28;20505;-57
2021/12/30 08:27:12;;;;;;;1.77;0.40;;;10.70;99.90;;;;;;4997863;28;20053;-59
2021/12/30 08:29:39;;;;;;;1.05;0.50;;;10.80;99.90;;;;;;4997742;28;20494;-60
2021/12/30 08:32:08;;;;;;;1.95;0.63;;;10.80;99.90;;;;;;4997794;28;20053;-56
2021/12/30 08:34:35;;;;;;;0.80;0.35;;;10.80;99.90;;;;;;4997939;28;20157;-57
2021/12/30 08:37:01;;;;;;;;;;;10.90;99.90;;;;;;4998666;28;20127;-59
2021/12/30 08:39:28;;;;;;;2.38;0.30;;;10.90;99.90;;;;;;4989947;28;20562;-54
2021/12/30 08:41:58;;;;;;;1.38;0.63;;;10.90;99.90;;;;;;4977755;28;20046;-55
2021/12/30 08:44:26;;;;;;;0.40;0.40;;;11.00;99.90;;;;;;4976928;28;20042;-58
2021/12/30 08:46:53;;;;;;;1.10;0.47;;;11.00;99.90;;;;;;4977727;28;20058;-58
2021/12/30 08:49:21;;;;;;;1.83;0.50;;;11.00;99.90;;;;;;4976775;28;20073;-59
2021/12/30 08:51:48;;;;;;;0.73;0.30;;;11.00;99.90;;;;;;4975348;28;20560;-56
2021/12/30 08:54:15;;;;;;;;;;;11.10;99.90;;;;;;4975738;28;20567;-56
2021/12/30 08:56:41;;;;;;;0.35;0.35;;;11.10;99.90;;;;;;4976971;28;20642;-56
2021/12/30 08:59:08;;;;;;;;;;;11.10;99.90;;;;;;4978294;28;20100;-56
2021/12/30 09:01:35;;;;;;;0.45;0.30;;;11.10;99.90;;;;;;4977295;28;19934;-56
2021/12/30 09:04:04;;;;;;;0.40;0.30;;;11.20;99.90;;;;;;4986240;28;20050;-59
2021/12/30 09:06:30;;;;;;;2.17;0.30;;;11.20;99.90;;;;;;4996877;28;20054;-56
2021/12/30 09:08:57;;;;;;;;;;;11.30;99.90;;;;;;4984684;28;20132;-56
2021/12/30 09:11:25;;;;;;;0.50;0.50;;;11.30;99.90;;;;;;4977032;28;19926;-57
2021/12/30 09:13:52;;;;;;;;;;;11.30;99.90;;;;;;4977613;28;20046;-55
2021/12/30 09:16:19;;;;;;;0.30;0.28;;;11.40;99.90;;;;;;4977115;28;20016;-56
2021/12/30 09:18:46;;;;;;;0.50;0.50;;;11.40;99.90;;;;;;4980945;28;20058;-56
2021/12/30 09:21:13;;;;;;;0.47;0.40;;;11.50;99.90;;;;;;4995124;28;20069;-56
2021/12/30 09:23:40;;;;;;;0.55;0.50;;;11.50;99.90;;;;;;4997112;28;20046;-56
2021/12/30 09:26:07;;;;;;;;;;;11.60;99.90;;;;;;4996540;28;20250;-57
2021/12/30 09:28:35;;;;;;;0.65;0.65;;;11.60;99.90;;;;;;4994434;28;19939;-57
2021/12/30 09:31:02;;;;;;;4.57;0.73;;;11.60;99.90;;;;;;4996906;28;20038;-59
2021/12/30 09:33:29;;;;;;;0.60;0.60;;;11.70;99.90;;;;;;4996392;28;20073;-59
2021/12/30 09:35:55;;;;;;;0.85;0.57;;;11.70;99.90;;;;;;4996918;28;20100;-59
2021/12/30 09:38:22;;;;;;;;;;;11.70;99.90;;;;;;4997415;28;20038;-59
2021/12/30 09:40:49;;;;;;;0.57;0.52;;;11.80;99.90;;;;;;4993252;28;19925;-59
2021/12/30 09:43:16;;;;;;;1.05;0.80;;;11.80;99.90;;;;;;4996218;28;20038;-58
2021/12/30 09:45:44;;;;;;;0.80;0.50;;;11.80;99.90;;;;;;4994955;28;20046;-59
2021/12/30 09:48:13;;;;;;;1.02;0.57;;;11.80;99.90;;;;;;4996779;28;20451;-59
2021/12/30 09:50:54;;;;;;;0.40;0.38;;;11.90;99.90;;;;;;4995891;28;20494;-59
2021/12/30 09:53:25;;;;;;;0.47;0.43;;;11.90;99.90;;;;;;4989277;28;20050;-59
2021/12/30 09:55:55;;;;;;;0.38;0.38;;;11.90;99.90;;;;;;4995546;28;20030;-59
2021/12/30 09:58:22;;;;;;;0.73;0.60;;;12.00;99.90;;;;;;4996788;28;20072;-58
2021/12/30 10:00:48;;;;;;;0.40;0.40;;;12.00;99.90;;;;;;4979800;28;20161;-58
2021/12/30 10:03:15;;;;;;;1.73;0.50;;;12.20;99.90;;;;;;4976734;28;20124;-60
2021/12/30 10:05:42;;;;;;;;;;;12.30;99.90;;;;;;4977397;28;20042;-61
2021/12/30 10:08:21;;;;;;;0.35;0.35;;;12.50;99.90;;;;;;4976712;28;19925;-61
2021/12/30 10:10:54;;;;;;;2.08;0.70;;;12.70;99.90;;;;;;4976184;28;20077;-60
2021/12/30 10:13:30;;;;;;;0.50;0.43;;;12.80;99.90;;;;;;4976493;28;20054;-59
2021/12/30 10:16:03;;;;;;;0.30;0.30;;;13.00;99.90;;;;;;4974977;28;21071;-62
2021/12/30 10:18:45;;;;;;;1.35;0.50;;;13.10;99.90;;;;;;4994456;28;20089;-57
2021/12/30 10:21:19;;;;;;;2.67;0.30;;;13.30;99.90;;;;;;4993160;28;20337;-55
2021/12/30 10:23:52;;;;;;;2.22;0.35;;;13.50;99.90;;;;;;4977655;28;20062;-55
2021/12/30 10:26:19;;;;;;;2.35;0.40;;;13.60;99.90;;;;;;4991747;28;20562;-55
2021/12/30 10:28:50;;;;;;;0.80;0.50;;;13.70;99.90;;;;;;4982393;28;20046;-56
2021/12/30 10:31:21;;;;;;;1.02;0.40;;;13.70;99.90;;;;;;4983208;28;20055;-55
2021/12/30 10:33:59;;;;;;;0.30;0.30;;;13.80;99.90;;;;;;4990997;28;20409;-55
2021/12/30 10:36:33;;;;;;;0.47;0.28;;;13.90;99.90;;;;;;4978497;28;20100;-56
2021/12/30 10:39:20;;;;;;;1.30;0.32;;;13.90;99.90;;;;;;4993339;28;20223;-55
2021/12/30 10:41:51;;;;;;;2.17;0.30;;;14.00;99.90;;;;;;4995586;28;20563;-59
2021/12/30 10:44:20;;;;;;;0.68;0.40;;;14.10;99.90;;;;;;4995779;28;20124;-59
2021/12/30 10:46:47;;;;;;;0.90;0.30;;;14.30;99.90;;;;;;4979305;28;20057;-58
2021/12/30 10:49:26;;;;;;;0.35;0.30;;;14.40;99.90;;;;;;4992890;28;20058;-59
2021/12/30 10:51:56;;;;;;;0.40;0.40;;;14.40;99.90;;;;;;4995471;28;20578;-56
2021/12/30 10:54:26;;;;;;;1.10;0.40;;;14.40;99.90;;;;;;4996037;28;20523;-59
2021/12/30 10:57:01;;;;;;;1.67;0.32;;;14.40;99.90;;;;;;4995333;28;20539;-59
2021/12/30 10:59:30;;;;;;;1.60;0.55;;;14.50;99.90;;;;;;5010407;28;20046;-59
2021/12/30 11:02:02;;;;;;;0.38;0.35;;;14.40;99.90;;;;;;4995393;28;20049;-59
2021/12/30 11:04:38;;;;;;;2.10;0.90;;;14.40;99.90;;;;;;4996405;28;20135;-59
2021/12/30 11:07:07;;;;;;;0.75;0.43;;;14.40;99.90;;;;;;4995658;28;20472;-59
2021/12/30 11:09:34;;;;;;;0.65;0.32;;;14.30;99.90;;;;;;4995430;28;20042;-59
2021/12/30 11:12:04;;;;;;;0.90;0.40;;;14.30;99.90;;;;;;4996226;28;20064;-59
2021/12/30 11:14:37;;;;;;;0.30;0.30;;;14.20;99.90;;;;;;4996113;28;20054;-59
2021/12/30 11:17:17;;;;;;;1.13;0.25;;;14.20;99.90;;;;;;4994337;28;20364;-59
2021/12/30 11:19:56;;;;;;;0.95;0.47;;;14.10;99.90;;;;;;4994885;28;20507;-59
2021/12/30 11:22:25;;;;;;;1.95;0.30;;;14.00;99.90;;;;;;4994485;28;20046;-57
2021/12/30 11:24:55;;;;;;;0.20;0.20;;;14.00;99.90;;;;;;4986421;28;20077;-57
2021/12/30 11:27:24;;;;;;;0.43;0.38;;;14.10;99.90;;;;;;4996008;28;20276;-57
2021/12/30 11:29:55;;;;;;;0.20;0.20;;;14.10;99.90;;;;;;4994276;28;20054;-59
2021/12/30 11:32:24;;;;;;;2.30;0.30;;;14.20;99.90;;;;;;4995432;28;20038;-56
2021/12/30 11:34:52;;;;;;;0.55;0.28;;;14.20;99.90;;;;;;4994540;28;20050;-57
2021/12/30 11:37:20;;;;;;;0.65;0.40;;;14.10;99.90;;;;;;4995268;28;20511;-57
2021/12/30 11:39:52;;;;;;;0.32;0.28;;;14.10;99.90;;;;;;4983404;28;20132;-57
2021/12/30 11:42:42;;;;;;;0.25;0.20;;;14.10;99.90;;;;;;4999352;28;20052;-56
2021/12/30 11:45:37;;;;;;;0.60;0.30;;;14.00;99.90;;;;;;4990167;28;20095;-58
2021/12/30 11:48:21;;;;;;;0.73;0.40;;;14.00;99.90;;;;;;4999252;28;20050;-58
2021/12/30 11:50:48;;;;;;;0.45;0.30;;;14.00;99.90;;;;;;4987533;28;20062;-58
2021/12/30 11:53:27;;;;;;;4.13;0.43;;;14.00;99.90;;;;;;4996603;28;20084;-58
2021/12/30 11:55:58;;;;;;;0.32;0.32;;;13.90;99.90;;;;;;4994933;28;20555;-58
2021/12/30 11:58:27;;;;;;;0.98;0.50;;;13.90;99.90;;;;;;4995051;28;20041;-58
2021/12/30 12:01:11;;;;;;;1.95;0.30;;;13.80;99.90;;;;;;4998098;28;20651;-58
2021/12/30 12:03:44;;;;;;;1.17;0.38;;;13.80;99.90;;;;;;4999070;28;20128;-58
2021/12/30 12:06:59;;;;;;;0.88;0.60;;;13.70;99.90;;;;;;4999218;28;20121;-58
2021/12/30 12:09:28;;;;;;;2.15;0.52;;;13.70;99.90;;;;;;4995865;28;20590;-58
2021/12/30 12:12:09;;;;;;;1.67;0.70;;;13.70;99.90;;;;;;4998437;28;20058;-58
2021/12/30 12:14:39;;;;;;;0.77;0.50;;;13.70;99.90;;;;;;4996746;28;20089;-58
2021/12/30 12:17:27;;;;;;;0.55;0.40;;;13.70;99.90;;;;;;4997282;28;20348;-58
2021/12/30 12:19:55;;;;;;;2.30;0.50;;;13.60;99.90;;;;;;4996984;28;20100;-58
2021/12/30 12:22:22;;;;;;;1.25;0.40;;;13.60;99.90;;;;;;4998298;28;20042;-58
2021/12/30 12:24:51;;;;;;;4.63;0.50;;;13.50;99.90;;;;;;4998468;28;20108;-58
2021/12/30 12:27:20;;;;;;;1.17;0.50;;;13.50;99.90;;;;;;4998794;28;20299;-58
2021/12/30 12:29:51;;;;;;;1.50;0.40;;;13.50;99.90;;;;;;4997611;28;20099;-58
2021/12/30 12:32:33;;;;;;;0.32;0.20;;;13.50;99.90;;;;;;4998246;28;20767;-58
2021/12/30 12:35:22;;;;;;;1.33;0.75;;;13.50;99.90;;;;;;4998297;28;20054;-58
2021/12/30 12:37:55;;;;;;;0.60;0.35;;;13.50;99.90;;;;;;4997391;28;20092;-58
2021/12/30 12:40:34;;;;;;;3.10;0.60;;;13.40;99.90;;;;;;4996157;28;20459;-56
2021/12/30 12:43:05;;;;;;;0.70;0.55;;;13.40;99.90;;;;;;4979791;28;20390;-56
2021/12/30 12:45:40;;;;;;;0.75;0.50;;;13.40;99.90;;;;;;4976086;28;20594;-56
2021/12/30 12:48:20;;;;;;;0.47;0.47;;;13.40;99.90;;;;;;4987577;28;20054;-56
2021/12/30 12:51:01;;;;;;;0.70;0.50;;;13.40;99.90;;;;;;4994358;28;20070;-56
2021/12/30 12:53:30;;;;;;;0.95;0.60;;;13.30;99.90;;;;;;4997197;28;20685;-58
2021/12/30 12:55:59;;;;;;;0.65;0.65;;;13.40;99.90;;;;;;4992442;28;20111;-59
2021/12/30 12:58:29;;;;;;;0.80;0.80;;;13.40;99.90;;;;;;4990919;28;21072;-59
2021/12/30 13:01:00;;;;;;;0.60;0.60;;;13.40;99.90;;;;;;4996976;28;20061;-59
2021/12/30 13:03:28;;;;;;;0.77;0.40;;;13.40;99.90;;;;;;4997572;28;20044;-53
2021/12/30 13:06:18;;;;;;;1.17;0.65;;;13.40;99.90;;;;;;4997584;28;20042;-60
2021/12/30 13:08:48;;;;;;;1.27;0.70;;;13.40;99.90;;;;;;4997573;28;20131;-60
2021/12/30 13:11:37;;;;;;;1.17;0.68;;;13.50;99.90;;;;;;4997276;28;20050;-60
2021/12/30 13:14:15;;;;;;;2.55;0.47;;;13.50;99.90;;;;;;4996795;28;20103;-60